sensor_id;sensor_type;location;lat;lon;timestamp;pressure;altitude;pressure_sealevel;temperature
30001;BMP280;16845;48.670;9.000;2023-07-28T00:01:13;94887.94;;;17.93
30001;BMP280;16845;48.670;9.000;2023-07-28T00:03:40;94881.34;;;18.03
30001;BMP280;16845;48.670;9.000;2023-07-28T00:06:06;94883.78;;;17.92
30001;BMP280;16845;48.670;9.000;2023-07-28T00:08:33;94882.06;;;17.93
30001;BMP280;16845;48.670;9.000;2023-07-28T00:11:00;94882.56;;;17.98
30001;BMP280;16845;48.670;9.000;2023-07-28T00:13:27;94888.47;;;17.98
30001;BMP280;16845;48.670;9.000;2023-07-28T00:15:53;94888.25;;;18.01
30001;BMP280;16845;48.670;9.000;2023-07-28T00:18:20;94883.56;;;18.08
30001;BMP280;16845;48.670;9.000;2023-07-28T00:20:46;94884.78;;;18.02
30001;BMP280;16845;48.670;9.000;2023-07-28T00:23:13;94884.31;;;17.97
30001;BMP280;16845;48.670;9.000;2023-07-28T00:25:39;94891.31;;;17.94
30001;BMP280;16845;48.670;9.000;2023-07-28T00:28:07;94894.16;;;17.89
30001;BMP280;16845;48.670;9.000;2023-07-28T00:30:34;94892.34;;;17.79
30001;BMP280;16845;48.670;9.000;2023-07-28T00:33:00;94891.31;;;17.81
30001;BMP280;16845;48.670;9.000;2023-07-28T00:35:27;94896.91;;;17.86
30001;BMP280;16845;48.670;9.000;2023-07-28T00:37:53;94895.97;;;17.87
30001;BMP280;16845;48.670;9.000;2023-07-28T00:40:21;94893.22;;;17.90
30001;BMP280;16845;48.670;9.000;2023-07-28T00:42:48;94887.84;;;17.82
30001;BMP280;16845;48.670;9.000;2023-07-28T00:45:16;94886.44;;;17.78
30001;BMP280;16845;48.670;9.000;2023-07-28T00:47:42;94884.31;;;17.72
30001;BMP280;16845;48.670;9.000;2023-07-28T00:50:10;94881.97;;;17.69
30001;BMP280;16845;48.670;9.000;2023-07-28T00:52:37;94881.34;;;17.78
30001;BMP280;16845;48.670;9.000;2023-07-28T00:55:06;94883.41;;;17.73
30001;BMP280;16845;48.670;9.000;2023-07-28T00:57:33;94887.66;;;17.73
30001;BMP280;16845;48.670;9.000;2023-07-28T01:00:00;94886.84;;;17.72
30001;BMP280;16845;48.670;9.000;2023-07-28T01:02:28;94891.50;;;17.78
30001;BMP280;16845;48.670;9.000;2023-07-28T01:04:54;94878.72;;;17.67
30001;BMP280;16845;48.670;9.000;2023-07-28T01:07:27;94885.72;;;17.76
30001;BMP280;16845;48.670;9.000;2023-07-28T01:10:01;94884.41;;;17.83
30001;BMP280;16845;48.670;9.000;2023-07-28T01:12:28;94876.81;;;17.83
30001;BMP280;16845;48.670;9.000;2023-07-28T01:14:55;94874.66;;;17.90
30001;BMP280;16845;48.670;9.000;2023-07-28T01:17:21;94870.38;;;17.90
30001;BMP280;16845;48.670;9.000;2023-07-28T01:19:49;94874.03;;;17.99
30001;BMP280;16845;48.670;9.000;2023-07-28T01:22:26;94872.63;;;18.07
30001;BMP280;16845;48.670;9.000;2023-07-28T01:25:05;94885.84;;;18.00
30001;BMP280;16845;48.670;9.000;2023-07-28T01:27:34;94880.84;;;17.86
30001;BMP280;16845;48.670;9.000;2023-07-28T01:30:00;94884.59;;;17.80
30001;BMP280;16845;48.670;9.000;2023-07-28T01:32:27;94887.44;;;17.76
30001;BMP280;16845;48.670;9.000;2023-07-28T01:34:54;94885.63;;;17.78
30001;BMP280;16845;48.670;9.000;2023-07-28T01:37:20;94882.47;;;17.62
30001;BMP280;16845;48.670;9.000;2023-07-28T01:39:47;94881.97;;;17.57
30001;BMP280;16845;48.670;9.000;2023-07-28T01:42:13;94877.63;;;17.71
30001;BMP280;16845;48.670;9.000;2023-07-28T01:44:41;94867.47;;;17.71
30001;BMP280;16845;48.670;9.000;2023-07-28T01:47:07;94856.31;;;17.61
30001;BMP280;16845;48.670;9.000;2023-07-28T01:49:34;94863.00;;;17.62
30001;BMP280;16845;48.670;9.000;2023-07-28T01:52:00;94858.31;;;17.56
30001;BMP280;16845;48.670;9.000;2023-07-28T01:54:27;94850.91;;;17.53
30001;BMP280;16845;48.670;9.000;2023-07-28T01:56:53;94845.66;;;17.44
30001;BMP280;16845;48.670;9.000;2023-07-28T01:59:20;94848.28;;;17.42
30001;BMP280;16845;48.670;9.000;2023-07-28T02:01:48;94839.66;;;17.45
30001;BMP280;16845;48.670;9.000;2023-07-28T02:04:14;94842.97;;;17.33
30001;BMP280;16845;48.670;9.000;2023-07-28T02:06:41;94840.53;;;17.31
30001;BMP280;16845;48.670;9.000;2023-07-28T02:09:08;94839.25;;;17.38
30001;BMP280;16845;48.670;9.000;2023-07-28T02:11:34;94848.06;;;17.45
30001;BMP280;16845;48.670;9.000;2023-07-28T02:14:00;94835.78;;;17.52
30001;BMP280;16845;48.670;9.000;2023-07-28T02:16:27;94839.16;;;17.52
30001;BMP280;16845;48.670;9.000;2023-07-28T02:18:55;94835.50;;;17.56
30001;BMP280;16845;48.670;9.000;2023-07-28T02:21:21;94840.66;;;17.67
30001;BMP280;16845;48.670;9.000;2023-07-28T02:23:48;94849.63;;;17.60
30001;BMP280;16845;48.670;9.000;2023-07-28T02:26:14;94842.69;;;17.50
30001;BMP280;16845;48.670;9.000;2023-07-28T02:28:41;94851.84;;;17.52
30001;BMP280;16845;48.670;9.000;2023-07-28T02:31:07;94847.38;;;17.56
30001;BMP280;16845;48.670;9.000;2023-07-28T02:33:34;94846.84;;;17.51
30001;BMP280;16845;48.670;9.000;2023-07-28T02:36:02;94853.59;;;17.25
30001;BMP280;16845;48.670;9.000;2023-07-28T02:38:29;94854.13;;;17.30
30001;BMP280;16845;48.670;9.000;2023-07-28T02:40:55;94855.28;;;17.12
30001;BMP280;16845;48.670;9.000;2023-07-28T02:43:22;94855.59;;;17.08
30001;BMP280;16845;48.670;9.000;2023-07-28T02:45:52;94853.03;;;17.08
30001;BMP280;16845;48.670;9.000;2023-07-28T02:48:19;94861.16;;;17.00
30001;BMP280;16845;48.670;9.000;2023-07-28T02:50:46;94863.38;;;17.05
30001;BMP280;16845;48.670;9.000;2023-07-28T02:53:14;94871.31;;;17.13
30001;BMP280;16845;48.670;9.000;2023-07-28T02:55:41;94873.75;;;17.14
30001;BMP280;16845;48.670;9.000;2023-07-28T02:58:07;94876.09;;;17.17
30001;BMP280;16845;48.670;9.000;2023-07-28T03:00:36;94876.59;;;17.22
30001;BMP280;16845;48.670;9.000;2023-07-28T03:03:03;94885.13;;;17.21
30001;BMP280;16845;48.670;9.000;2023-07-28T03:05:30;94886.47;;;17.27
30001;BMP280;16845;48.670;9.000;2023-07-28T03:07:57;94889.88;;;17.13
30001;BMP280;16845;48.670;9.000;2023-07-28T03:10:25;94887.31;;;17.13
30001;BMP280;16845;48.670;9.000;2023-07-28T03:12:52;94892.22;;;17.16
30001;BMP280;16845;48.670;9.000;2023-07-28T03:15:19;94895.47;;;17.18
30001;BMP280;16845;48.670;9.000;2023-07-28T03:17:46;94899.09;;;17.14
30001;BMP280;16845;48.670;9.000;2023-07-28T03:20:13;94898.63;;;17.22
30001;BMP280;16845;48.670;9.000;2023-07-28T03:22:39;94895.34;;;17.20
30001;BMP280;16845;48.670;9.000;2023-07-28T03:25:06;94892.22;;;17.16
30001;BMP280;16845;48.670;9.000;2023-07-28T03:27:34;94893.03;;;17.17
30001;BMP280;16845;48.670;9.000;2023-07-28T03:30:01;94902.09;;;17.33
30001;BMP280;16845;48.670;9.000;2023-07-28T03:32:28;94898.72;;;17.20
30001;BMP280;16845;48.670;9.000;2023-07-28T03:34:54;94906.81;;;17.25
30001;BMP280;16845;48.670;9.000;2023-07-28T03:37:21;94915.84;;;17.43
30001;BMP280;16845;48.670;9.000;2023-07-28T03:39:47;94908.44;;;17.40
30001;BMP280;16845;48.670;9.000;2023-07-28T03:42:14;94904.63;;;17.33
30001;BMP280;16845;48.670;9.000;2023-07-28T03:44:42;94910.13;;;17.40
30001;BMP280;16845;48.670;9.000;2023-07-28T03:47:08;94912.00;;;17.50
30001;BMP280;16845;48.670;9.000;2023-07-28T03:49:35;94910.88;;;17.54
30001;BMP280;16845;48.670;9.000;2023-07-28T03:52:02;94908.84;;;17.59
30001;BMP280;16845;48.670;9.000;2023-07-28T03:54:28;94916.25;;;17.50
30001;BMP280;16845;48.670;9.000;2023-07-28T03:56:55;94911.19;;;17.62
30001;BMP280;16845;48.670;9.000;2023-07-28T03:59:24;94909.84;;;17.44
30001;BMP280;16845;48.670;9.000;2023-07-28T04:01:52;94909.97;;;17.55
30001;BMP280;16845;48.670;9.000;2023-07-28T04:04:19;94908.53;;;17.64
30001;BMP280;16845;48.670;9.000;2023-07-28T04:06:46;94912.59;;;17.54
30001;BMP280;16845;48.670;9.000;2023-07-28T04:09:14;94916.38;;;17.61
30001;BMP280;16845;48.670;9.000;2023-07-28T04:11:41;94919.31;;;17.67
30001;BMP280;16845;48.670;9.000;2023-07-28T04:14:08;94922.38;;;17.72
30001;BMP280;16845;48.670;9.000;2023-07-28T04:16:34;94934.16;;;17.73
30001;BMP280;16845;48.670;9.000;2023-07-28T04:19:03;94933.53;;;17.70
30001;BMP280;16845;48.670;9.000;2023-07-28T04:21:29;94932.91;;;17.66
30001;BMP280;16845;48.670;9.000;2023-07-28T04:23:56;94917.28;;;17.60
30001;BMP280;16845;48.670;9.000;2023-07-28T04:26:23;94913.75;;;17.62
30001;BMP280;16845;48.670;9.000;2023-07-28T04:28:49;94924.19;;;17.58
30001;BMP280;16845;48.670;9.000;2023-07-28T04:31:16;94913.78;;;17.48
30001;BMP280;16845;48.670;9.000;2023-07-28T04:33:43;94910.47;;;17.48
30001;BMP280;16845;48.670;9.000;2023-07-28T04:36:11;94897.16;;;17.44
30001;BMP280;16845;48.670;9.000;2023-07-28T04:38:38;94899.41;;;17.49
30001;BMP280;16845;48.670;9.000;2023-07-28T04:41:04;94910.38;;;17.49
30001;BMP280;16845;48.670;9.000;2023-07-28T04:43:31;94896.97;;;17.47
30001;BMP280;16845;48.670;9.000;2023-07-28T04:45:57;94904.56;;;17.47
30001;BMP280;16845;48.670;9.000;2023-07-28T04:48:24;94901.44;;;17.44
30001;BMP280;16845;48.670;9.000;2023-07-28T04:50:50;94912.00;;;17.50
30001;BMP280;16845;48.670;9.000;2023-07-28T04:53:18;94912.00;;;17.50
30001;BMP280;16845;48.670;9.000;2023-07-28T04:55:45;94912.38;;;17.44
30001;BMP280;16845;48.670;9.000;2023-07-28T04:58:11;94919.19;;;17.44
30001;BMP280;16845;48.670;9.000;2023-07-28T05:00:38;94925.97;;;17.43
30001;BMP280;16845;48.670;9.000;2023-07-28T05:03:04;94918.88;;;17.36
30001;BMP280;16845;48.670;9.000;2023-07-28T05:05:31;94919.31;;;17.28
30001;BMP280;16845;48.670;9.000;2023-07-28T05:07:57;94919.19;;;17.17
30001;BMP280;16845;48.670;9.000;2023-07-28T05:10:25;94922.03;;;17.13
30001;BMP280;16845;48.670;9.000;2023-07-28T05:12:52;94923.41;;;17.04
30001;BMP280;16845;48.670;9.000;2023-07-28T05:15:18;94923.72;;;17.00
30001;BMP280;16845;48.670;9.000;2023-07-28T05:17:45;94929.78;;;16.97
30001;BMP280;16845;48.670;9.000;2023-07-28T05:20:11;94927.59;;;16.91
30001;BMP280;16845;48.670;9.000;2023-07-28T05:22:38;94934.50;;;16.89
30001;BMP280;16845;48.670;9.000;2023-07-28T05:25:05;94943.72;;;16.90
30001;BMP280;16845;48.670;9.000;2023-07-28T05:27:34;94944.63;;;16.89
30001;BMP280;16845;48.670;9.000;2023-07-28T05:30:00;94939.28;;;16.94
30001;BMP280;16845;48.670;9.000;2023-07-28T05:32:27;94940.63;;;16.99
30001;BMP280;16845;48.670;9.000;2023-07-28T05:34:53;94944.69;;;17.02
30001;BMP280;16845;48.670;9.000;2023-07-28T05:37:20;94938.72;;;17.03
30001;BMP280;16845;48.670;9.000;2023-07-28T05:39:46;94944.00;;;17.12
30001;BMP280;16845;48.670;9.000;2023-07-28T05:42:13;94947.78;;;17.19
30001;BMP280;16845;48.670;9.000;2023-07-28T05:44:41;94953.50;;;17.23
30001;BMP280;16845;48.670;9.000;2023-07-28T05:47:07;94961.72;;;17.26
30001;BMP280;16845;48.670;9.000;2023-07-28T05:49:34;94965.88;;;17.27
30001;BMP280;16845;48.670;9.000;2023-07-28T05:52:00;94965.69;;;17.30
30001;BMP280;16845;48.670;9.000;2023-07-28T05:54:27;94965.69;;;17.30
30001;BMP280;16845;48.670;9.000;2023-07-28T05:56:53;94965.94;;;17.40
30001;BMP280;16845;48.670;9.000;2023-07-28T05:59:20;94962.47;;;17.41
30001;BMP280;16845;48.670;9.000;2023-07-28T06:01:47;94968.06;;;17.19
30001;BMP280;16845;48.670;9.000;2023-07-28T06:04:14;94968.91;;;17.32
30001;BMP280;16845;48.670;9.000;2023-07-28T06:06:40;94974.00;;;17.32
30001;BMP280;16845;48.670;9.000;2023-07-28T06:09:07;94973.81;;;17.35
30001;BMP280;16845;48.670;9.000;2023-07-28T06:11:33;94987.84;;;17.41
30001;BMP280;16845;48.670;9.000;2023-07-28T06:14:00;94977.19;;;17.48
30001;BMP280;16845;48.670;9.000;2023-07-28T06:16:27;94975.56;;;17.47
30001;BMP280;16845;48.670;9.000;2023-07-28T06:18:55;94984.00;;;17.48
30001;BMP280;16845;48.670;9.000;2023-07-28T06:21:21;94986.75;;;17.45
30001;BMP280;16845;48.670;9.000;2023-07-28T06:23:48;94988.59;;;17.55
30001;BMP280;16845;48.670;9.000;2023-07-28T06:26:14;95002.19;;;17.54
30001;BMP280;16845;48.670;9.000;2023-07-28T06:28:41;94990.75;;;17.61
30001;BMP280;16845;48.670;9.000;2023-07-28T06:31:07;94997.81;;;17.56
30001;BMP280;16845;48.670;9.000;2023-07-28T06:33:34;94998.44;;;17.60
30001;BMP280;16845;48.670;9.000;2023-07-28T06:36:02;95003.31;;;17.63
30001;BMP280;16845;48.670;9.000;2023-07-28T06:38:28;95002.69;;;17.59
30001;BMP280;16845;48.670;9.000;2023-07-28T06:40:55;95003.31;;;17.50
30001;BMP280;16845;48.670;9.000;2023-07-28T06:43:21;94999.00;;;17.38
30001;BMP280;16845;48.670;9.000;2023-07-28T06:45:50;94994.38;;;17.57
30001;BMP280;16845;48.670;9.000;2023-07-28T06:48:17;94995.16;;;17.84
30001;BMP280;16845;48.670;9.000;2023-07-28T06:50:43;94992.75;;;17.95
30001;BMP280;16845;48.670;9.000;2023-07-28T06:53:11;94993.66;;;18.07
30001;BMP280;16845;48.670;9.000;2023-07-28T06:55:38;94996.47;;;18.27
30001;BMP280;16845;48.670;9.000;2023-07-28T06:58:04;94986.47;;;18.38
30001;BMP280;16845;48.670;9.000;2023-07-28T07:00:31;94998.53;;;18.60
30001;BMP280;16845;48.670;9.000;2023-07-28T07:02:57;95007.75;;;18.73
30001;BMP280;16845;48.670;9.000;2023-07-28T07:05:24;95004.91;;;18.78
30001;BMP280;16845;48.670;9.000;2023-07-28T07:07:50;95005.81;;;18.77
30001;BMP280;16845;48.670;9.000;2023-07-28T07:10:18;95012.75;;;18.75
30001;BMP280;16845;48.670;9.000;2023-07-28T07:12:45;95012.72;;;18.87
30001;BMP280;16845;48.670;9.000;2023-07-28T07:15:11;95018.81;;;18.97
30001;BMP280;16845;48.670;9.000;2023-07-28T07:17:38;95010.34;;;19.09
30001;BMP280;16845;48.670;9.000;2023-07-28T07:20:06;95010.56;;;18.94
30001;BMP280;16845;48.670;9.000;2023-07-28T07:22:32;95006.56;;;19.14
30001;BMP280;16845;48.670;9.000;2023-07-28T07:24:59;95006.19;;;19.31
30001;BMP280;16845;48.670;9.000;2023-07-28T07:27:27;95004.31;;;19.10
30001;BMP280;16845;48.670;9.000;2023-07-28T07:29:54;95004.41;;;19.68
30001;BMP280;16845;48.670;9.000;2023-07-28T07:32:20;94998.75;;;19.75
30001;BMP280;16845;48.670;9.000;2023-07-28T07:34:47;94999.59;;;19.76
30001;BMP280;16845;48.670;9.000;2023-07-28T07:37:13;95002.03;;;20.12
30001;BMP280;16845;48.670;9.000;2023-07-28T07:39:40;95002.81;;;20.12
30001;BMP280;16845;48.670;9.000;2023-07-28T07:42:06;95002.41;;;20.40
30001;BMP280;16845;48.670;9.000;2023-07-28T07:44:34;95002.41;;;20.40
30001;BMP280;16845;48.670;9.000;2023-07-28T07:47:01;95004.72;;;20.43
30001;BMP280;16845;48.670;9.000;2023-07-28T07:49:37;95014.84;;;20.56
30001;BMP280;16845;48.670;9.000;2023-07-28T07:52:06;95014.81;;;20.34
30001;BMP280;16845;48.670;9.000;2023-07-28T07:54:32;95023.41;;;20.44
30001;BMP280;16845;48.670;9.000;2023-07-28T07:56:59;95025.69;;;20.36
30001;BMP280;16845;48.670;9.000;2023-07-28T07:59:25;95026.13;;;20.30
30001;BMP280;16845;48.670;9.000;2023-07-28T08:01:53;95035.75;;;20.48
30001;BMP280;16845;48.670;9.000;2023-07-28T08:04:20;95030.34;;;20.64
30001;BMP280;16845;48.670;9.000;2023-07-28T08:06:46;95030.59;;;20.72
30001;BMP280;16845;48.670;9.000;2023-07-28T08:09:13;95030.13;;;21.11
30001;BMP280;16845;48.670;9.000;2023-07-28T08:11:39;95029.16;;;21.23
30001;BMP280;16845;48.670;9.000;2023-07-28T08:14:06;95035.53;;;21.28
30001;BMP280;16845;48.670;9.000;2023-07-28T08:16:32;95034.66;;;21.61
30001;BMP280;16845;48.670;9.000;2023-07-28T08:19:00;95026.50;;;21.77
30001;BMP280;16845;48.670;9.000;2023-07-28T08:21:27;95027.44;;;22.28
30001;BMP280;16845;48.670;9.000;2023-07-28T08:23:53;95021.34;;;22.40
30001;BMP280;16845;48.670;9.000;2023-07-28T08:26:20;95031.81;;;22.58
30001;BMP280;16845;48.670;9.000;2023-07-28T08:28:46;95036.25;;;22.24
30001;BMP280;16845;48.670;9.000;2023-07-28T08:31:13;95037.28;;;22.33
30001;BMP280;16845;48.670;9.000;2023-07-28T08:33:39;95044.78;;;21.93
30001;BMP280;16845;48.670;9.000;2023-07-28T08:36:07;95049.81;;;21.84
30001;BMP280;16845;48.670;9.000;2023-07-28T08:38:33;95048.22;;;21.72
30001;BMP280;16845;48.670;9.000;2023-07-28T08:41:00;95033.75;;;22.13
30001;BMP280;16845;48.670;9.000;2023-07-28T08:43:27;95039.50;;;22.67
30001;BMP280;16845;48.670;9.000;2023-07-28T08:45:53;95045.88;;;23.42
30001;BMP280;16845;48.670;9.000;2023-07-28T08:48:20;95032.84;;;23.83
30001;BMP280;16845;48.670;9.000;2023-07-28T08:50:47;95036.78;;;24.99
30001;BMP280;16845;48.670;9.000;2023-07-28T08:53:15;95027.97;;;25.83
30001;BMP280;16845;48.670;9.000;2023-07-28T08:55:42;95030.91;;;26.23
30001;BMP280;16845;48.670;9.000;2023-07-28T08:58:16;95020.84;;;26.72
30001;BMP280;16845;48.670;9.000;2023-07-28T09:00:43;95036.28;;;25.50
30001;BMP280;16845;48.670;9.000;2023-07-28T09:03:09;95039.66;;;25.23
30001;BMP280;16845;48.670;9.000;2023-07-28T09:05:36;95048.97;;;24.88
30001;BMP280;16845;48.670;9.000;2023-07-28T09:08:03;95033.16;;;24.27
30001;BMP280;16845;48.670;9.000;2023-07-28T09:10:41;95044.16;;;23.62
30001;BMP280;16845;48.670;9.000;2023-07-28T09:13:09;95044.72;;;23.16
30001;BMP280;16845;48.670;9.000;2023-07-28T09:15:35;95044.25;;;23.02
30001;BMP280;16845;48.670;9.000;2023-07-28T09:18:02;95050.69;;;22.96
30001;BMP280;16845;48.670;9.000;2023-07-28T09:20:33;95049.97;;;22.55
30001;BMP280;16845;48.670;9.000;2023-07-28T09:23:00;95054.25;;;22.54
30001;BMP280;16845;48.670;9.000;2023-07-28T09:25:28;95050.78;;;22.24
30001;BMP280;16845;48.670;9.000;2023-07-28T09:27:57;95056.09;;;21.80
30001;BMP280;16845;48.670;9.000;2023-07-28T09:30:24;95062.88;;;21.90
30001;BMP280;16845;48.670;9.000;2023-07-28T09:32:53;95053.72;;;22.19
30001;BMP280;16845;48.670;9.000;2023-07-28T09:35:21;95050.81;;;22.44
30001;BMP280;16845;48.670;9.000;2023-07-28T09:37:49;95053.88;;;22.59
30001;BMP280;16845;48.670;9.000;2023-07-28T09:40:17;95051.72;;;22.84
30001;BMP280;16845;48.670;9.000;2023-07-28T09:42:45;95049.06;;;22.65
30001;BMP280;16845;48.670;9.000;2023-07-28T09:45:13;95049.19;;;22.94
30001;BMP280;16845;48.670;9.000;2023-07-28T09:48:01;95048.72;;;22.79
30001;BMP280;16845;48.670;9.000;2023-07-28T09:50:32;95051.34;;;22.68
30001;BMP280;16845;48.670;9.000;2023-07-28T09:53:02;95056.16;;;22.82
30001;BMP280;16845;48.670;9.000;2023-07-28T09:55:29;95064.47;;;22.54
30001;BMP280;16845;48.670;9.000;2023-07-28T09:57:58;95056.72;;;22.65
30001;BMP280;16845;48.670;9.000;2023-07-28T10:00:29;95049.91;;;22.75
30001;BMP280;16845;48.670;9.000;2023-07-28T10:02:57;95062.59;;;22.77
30001;BMP280;16845;48.670;9.000;2023-07-28T10:05:24;95052.91;;;22.80
30001;BMP280;16845;48.670;9.000;2023-07-28T10:07:51;95063.59;;;22.95
30001;BMP280;16845;48.670;9.000;2023-07-28T10:10:18;95063.41;;;23.07
30001;BMP280;16845;48.670;9.000;2023-07-28T10:12:46;95065.56;;;23.12
30001;BMP280;16845;48.670;9.000;2023-07-28T10:15:15;95067.56;;;23.08
30001;BMP280;16845;48.670;9.000;2023-07-28T10:17:45;95075.38;;;22.56
30001;BMP280;16845;48.670;9.000;2023-07-28T10:20:28;95076.94;;;22.68
30001;BMP280;16845;48.670;9.000;2023-07-28T10:23:02;95073.28;;;22.61
30001;BMP280;16845;48.670;9.000;2023-07-28T10:25:32;95072.56;;;22.59
30001;BMP280;16845;48.670;9.000;2023-07-28T10:27:59;95068.66;;;23.36
30001;BMP280;16845;48.670;9.000;2023-07-28T10:30:25;95058.66;;;24.10
30001;BMP280;16845;48.670;9.000;2023-07-28T10:32:54;95063.63;;;24.40
30001;BMP280;16845;48.670;9.000;2023-07-28T10:35:23;95060.41;;;24.28
30001;BMP280;16845;48.670;9.000;2023-07-28T10:37:49;95061.06;;;24.30
30001;BMP280;16845;48.670;9.000;2023-07-28T10:40:23;95057.72;;;24.30
30001;BMP280;16845;48.670;9.000;2023-07-28T10:42:51;95065.41;;;24.30
30001;BMP280;16845;48.670;9.000;2023-07-28T10:45:18;95069.44;;;24.23
30001;BMP280;16845;48.670;9.000;2023-07-28T10:47:45;95065.28;;;24.22
30001;BMP280;16845;48.670;9.000;2023-07-28T10:50:13;95066.75;;;24.15
30001;BMP280;16845;48.670;9.000;2023-07-28T10:52:40;95071.59;;;24.37
30001;BMP280;16845;48.670;9.000;2023-07-28T10:55:12;95071.84;;;24.43
30001;BMP280;16845;48.670;9.000;2023-07-28T10:57:38;95081.31;;;24.05
30001;BMP280;16845;48.670;9.000;2023-07-28T11:00:07;95067.69;;;24.14
30001;BMP280;16845;48.670;9.000;2023-07-28T11:02:37;95071.72;;;24.45
30001;BMP280;16845;48.670;9.000;2023-07-28T11:05:06;95074.41;;;24.43
30001;BMP280;16845;48.670;9.000;2023-07-28T11:07:34;95072.53;;;24.17
30001;BMP280;16845;48.670;9.000;2023-07-28T11:10:01;95071.59;;;24.18
30001;BMP280;16845;48.670;9.000;2023-07-28T11:12:28;95072.53;;;24.08
30001;BMP280;16845;48.670;9.000;2023-07-28T11:14:54;95076.31;;;23.94
30001;BMP280;16845;48.670;9.000;2023-07-28T11:17:21;95069.72;;;24.11
30001;BMP280;16845;48.670;9.000;2023-07-28T11:19:47;95071.72;;;24.45
30001;BMP280;16845;48.670;9.000;2023-07-28T11:22:16;95076.84;;;24.45
30001;BMP280;16845;48.670;9.000;2023-07-28T11:24:44;95078.09;;;24.22
30001;BMP280;16845;48.670;9.000;2023-07-28T11:27:10;95074.56;;;24.23
30001;BMP280;16845;48.670;9.000;2023-07-28T11:29:37;95076.31;;;24.13
30001;BMP280;16845;48.670;9.000;2023-07-28T11:32:04;95084.28;;;23.42
30001;BMP280;16845;48.670;9.000;2023-07-28T11:34:35;95076.50;;;22.93
30001;BMP280;16845;48.670;9.000;2023-07-28T11:37:02;95086.38;;;23.18
30001;BMP280;16845;48.670;9.000;2023-07-28T11:39:29;95087.88;;;23.00
30001;BMP280;16845;48.670;9.000;2023-07-28T11:41:57;95092.97;;;22.50
30001;BMP280;16845;48.670;9.000;2023-07-28T11:44:24;95102.47;;;22.27
30001;BMP280;16845;48.670;9.000;2023-07-28T11:46:50;95106.44;;;21.14
30001;BMP280;16845;48.670;9.000;2023-07-28T11:49:18;95106.59;;;20.78
30001;BMP280;16845;48.670;9.000;2023-07-28T11:51:47;95107.72;;;20.52
30001;BMP280;16845;48.670;9.000;2023-07-28T11:54:15;95114.59;;;20.28
30001;BMP280;16845;48.670;9.000;2023-07-28T11:56:42;95115.28;;;20.30
30001;BMP280;16845;48.670;9.000;2023-07-28T11:59:10;95112.56;;;20.44
30001;BMP280;16845;48.670;9.000;2023-07-28T12:01:51;95104.03;;;20.56
30001;BMP280;16845;48.670;9.000;2023-07-28T12:04:22;95103.00;;;20.80
30001;BMP280;16845;48.670;9.000;2023-07-28T12:07:05;95101.53;;;21.11
30001;BMP280;16845;48.670;9.000;2023-07-28T12:09:33;95097.81;;;21.70
30001;BMP280;16845;48.670;9.000;2023-07-28T12:11:59;95092.75;;;21.90
30001;BMP280;16845;48.670;9.000;2023-07-28T12:14:33;95093.56;;;22.63
30001;BMP280;16845;48.670;9.000;2023-07-28T12:17:03;95091.69;;;22.65
30001;BMP280;16845;48.670;9.000;2023-07-28T12:19:41;95076.41;;;23.04
30001;BMP280;16845;48.670;9.000;2023-07-28T12:22:08;95077.47;;;23.22
30001;BMP280;16845;48.670;9.000;2023-07-28T12:24:34;95079.97;;;23.43
30001;BMP280;16845;48.670;9.000;2023-07-28T12:27:01;95081.09;;;23.59
30001;BMP280;16845;48.670;9.000;2023-07-28T12:29:34;95081.75;;;23.52
30001;BMP280;16845;48.670;9.000;2023-07-28T12:32:01;95069.03;;;24.18
30001;BMP280;16845;48.670;9.000;2023-07-28T12:34:29;95058.13;;;24.26
30001;BMP280;16845;48.670;9.000;2023-07-28T12:36:55;95066.06;;;24.23
30001;BMP280;16845;48.670;9.000;2023-07-28T12:39:22;95066.31;;;24.48
30001;BMP280;16845;48.670;9.000;2023-07-28T12:41:51;95067.97;;;24.11
30001;BMP280;16845;48.670;9.000;2023-07-28T12:44:21;95077.38;;;23.33
30001;BMP280;16845;48.670;9.000;2023-07-28T12:47:08;95083.72;;;23.39
30001;BMP280;16845;48.670;9.000;2023-07-28T12:49:35;95076.88;;;23.09
30001;BMP280;16845;48.670;9.000;2023-07-28T12:52:04;95073.88;;;23.04
30001;BMP280;16845;48.670;9.000;2023-07-28T12:54:31;95082.91;;;22.78
30001;BMP280;16845;48.670;9.000;2023-07-28T12:57:10;95081.13;;;22.99
30001;BMP280;16845;48.670;9.000;2023-07-28T12:59:37;95081.38;;;22.96
30001;BMP280;16845;48.670;9.000;2023-07-28T13:02:25;95093.44;;;22.85
30001;BMP280;16845;48.670;9.000;2023-07-28T13:04:51;95087.72;;;22.72
30001;BMP280;16845;48.670;9.000;2023-07-28T13:07:18;95090.06;;;22.23
30001;BMP280;16845;48.670;9.000;2023-07-28T13:09:48;95102.69;;;22.24
30001;BMP280;16845;48.670;9.000;2023-07-28T13:12:14;95099.31;;;22.03
30001;BMP280;16845;48.670;9.000;2023-07-28T13:14:44;95100.97;;;21.93
30001;BMP280;16845;48.670;9.000;2023-07-28T13:17:10;95104.50;;;21.81
30001;BMP280;16845;48.670;9.000;2023-07-28T13:19:38;95103.59;;;21.72
30001;BMP280;16845;48.670;9.000;2023-07-28T13:22:05;95111.50;;;21.58
30001;BMP280;16845;48.670;9.000;2023-07-28T13:24:34;95121.47;;;21.39
30001;BMP280;16845;48.670;9.000;2023-07-28T13:27:00;95121.25;;;21.20
30001;BMP280;16845;48.670;9.000;2023-07-28T13:29:27;95123.22;;;21.05
30001;BMP280;16845;48.670;9.000;2023-07-28T13:31:58;95129.03;;;20.85
30001;BMP280;16845;48.670;9.000;2023-07-28T13:34:25;95138.56;;;20.71
30001;BMP280;16845;48.670;9.000;2023-07-28T13:36:53;95141.69;;;20.63
30001;BMP280;16845;48.670;9.000;2023-07-28T13:39:19;95135.50;;;20.44
30001;BMP280;16845;48.670;9.000;2023-07-28T13:41:46;95156.75;;;20.32
30001;BMP280;16845;48.670;9.000;2023-07-28T13:44:12;95153.22;;;20.11
30001;BMP280;16845;48.670;9.000;2023-07-28T13:46:40;95153.81;;;20.02
30001;BMP280;16845;48.670;9.000;2023-07-28T13:49:07;95155.38;;;19.92
30001;BMP280;16845;48.670;9.000;2023-07-28T13:51:34;95141.78;;;19.57
30001;BMP280;16845;48.670;9.000;2023-07-28T13:54:21;95148.41;;;19.47
30001;BMP280;16845;48.670;9.000;2023-07-28T13:56:49;95147.31;;;19.38
30001;BMP280;16845;48.670;9.000;2023-07-28T13:59:19;95133.16;;;19.34
30001;BMP280;16845;48.670;9.000;2023-07-28T14:01:45;95129.81;;;19.34
30001;BMP280;16845;48.670;9.000;2023-07-28T14:04:12;95107.41;;;19.39
30001;BMP280;16845;48.670;9.000;2023-07-28T14:06:38;95097.03;;;19.42
30001;BMP280;16845;48.670;9.000;2023-07-28T14:09:05;95099.69;;;19.40
30001;BMP280;16845;48.670;9.000;2023-07-28T14:11:34;95114.41;;;19.48